sensor_id;sensor_type;location;lat;lon;timestamp;temperature;humidity
19781;DHT22;10050;55.492;13.506;2022-07-06T00:01:16;14.90;99.90
19781;DHT22;10050;55.492;13.506;2022-07-06T00:03:42;14.90;99.90
19781;DHT22;10050;55.492;13.506;2022-07-06T00:06:07;14.90;99.90
19781;DHT22;10050;55.492;13.506;2022-07-06T00:08:33;14.90;99.90
19781;DHT22;10050;55.492;13.506;2022-07-06T00:10:59;14.80;99.90
19781;DHT22;10050;55.492;13.506;2022-07-06T00:13:25;14.80;99.90
19781;DHT22;10050;55.492;13.506;2022-07-06T00:15:51;14.80;99.90
19781;DHT22;10050;55.492;13.506;2022-07-06T00:18:17;14.90;99.90
19781;DHT22;10050;55.492;13.506;2022-07-06T00:20:42;14.90;99.90
19781;DHT22;10050;55.492;13.506;2022-07-06T00:23:08;14.80;99.90
19781;DHT22;10050;55.492;13.506;2022-07-06T00:25:34;14.80;99.90
19781;DHT22;10050;55.492;13.506;2022-07-06T00:27:59;14.90;99.90
19781;DHT22;10050;55.492;13.506;2022-07-06T00:30:25;14.90;99.90
19781;DHT22;10050;55.492;13.506;2022-07-06T00:32:51;14.80;99.90
19781;DHT22;10050;55.492;13.506;2022-07-06T00:35:16;14.80;99.90
19781;DHT22;10050;55.492;13.506;2022-07-06T00:37:42;14.60;99.90
19781;DHT22;10050;55.492;13.506;2022-07-06T00:40:08;14.70;99.90
19781;DHT22;10050;55.492;13.506;2022-07-06T00:42:41;14.60;99.90
19781;DHT22;10050;55.492;13.506;2022-07-06T00:45:07;14.50;99.90
19781;DHT22;10050;55.492;13.506;2022-07-06T00:47:33;14.50;99.90
19781;DHT22;10050;55.492;13.506;2022-07-06T00:49:58;14.40;99.90
19781;DHT22;10050;55.492;13.506;2022-07-06T00:52:44;14.30;99.90
19781;DHT22;10050;55.492;13.506;2022-07-06T00:55:10;14.30;99.90
19781;DHT22;10050;55.492;13.506;2022-07-06T00:57:37;14.30;99.90
19781;DHT22;10050;55.492;13.506;2022-07-06T01:00:04;14.30;99.90
19781;DHT22;10050;55.492;13.506;2022-07-06T01:02:32;14.30;99.90
19781;DHT22;10050;55.492;13.506;2022-07-06T01:04:57;14.30;99.90
19781;DHT22;10050;55.492;13.506;2022-07-06T01:07:24;14.30;99.90
19781;DHT22;10050;55.492;13.506;2022-07-06T01:09:49;14.30;99.90
19781;DHT22;10050;55.492;13.506;2022-07-06T01:12:15;14.20;99.90
19781;DHT22;10050;55.492;13.506;2022-07-06T01:14:42;14.20;99.90
19781;DHT22;10050;55.492;13.506;2022-07-06T01:17:08;14.30;99.90
19781;DHT22;10050;55.492;13.506;2022-07-06T01:19:34;14.30;99.90
19781;DHT22;10050;55.492;13.506;2022-07-06T01:21:59;14.20;99.90
19781;DHT22;10050;55.492;13.506;2022-07-06T01:24:25;14.20;99.90
19781;DHT22;10050;55.492;13.506;2022-07-06T01:26:51;14.10;99.90
19781;DHT22;10050;55.492;13.506;2022-07-06T01:29:17;14.10;99.90
19781;DHT22;10050;55.492;13.506;2022-07-06T01:31:50;14.10;99.90
19781;DHT22;10050;55.492;13.506;2022-07-06T01:34:17;14.00;99.90
19781;DHT22;10050;55.492;13.506;2022-07-06T01:36:43;13.90;99.90
19781;DHT22;10050;55.492;13.506;2022-07-06T01:39:09;14.00;99.90
19781;DHT22;10050;55.492;13.506;2022-07-06T01:41:36;14.00;99.90
19781;DHT22;10050;55.492;13.506;2022-07-06T01:44:02;13.90;99.90
19781;DHT22;10050;55.492;13.506;2022-07-06T01:46:28;13.80;99.90
19781;DHT22;10050;55.492;13.506;2022-07-06T01:48:54;13.80;99.90
19781;DHT22;10050;55.492;13.506;2022-07-06T01:51:20;13.70;99.90
19781;DHT22;10050;55.492;13.506;2022-07-06T01:53:46;13.80;99.90
19781;DHT22;10050;55.492;13.506;2022-07-06T01:56:12;13.80;99.90
19781;DHT22;10050;55.492;13.506;2022-07-06T01:58:39;13.80;99.90
19781;DHT22;10050;55.492;13.506;2022-07-06T02:01:09;13.80;99.90
19781;DHT22;10050;55.492;13.506;2022-07-06T02:03:35;13.80;99.90
19781;DHT22;10050;55.492;13.506;2022-07-06T02:06:01;13.70;99.90
19781;DHT22;10050;55.492;13.506;2022-07-06T02:08:27;13.70;99.90
19781;DHT22;10050;55.492;13.506;2022-07-06T02:10:52;13.70;99.90
19781;DHT22;10050;55.492;13.506;2022-07-06T02:13:18;13.70;99.90
19781;DHT22;10050;55.492;13.506;2022-07-06T02:15:44;13.70;99.90
19781;DHT22;10050;55.492;13.506;2022-07-06T02:18:09;13.70;99.90
19781;DHT22;10050;55.492;13.506;2022-07-06T02:20:35;13.70;99.90
19781;DHT22;10050;55.492;13.506;2022-07-06T02:23:00;13.70;99.90
19781;DHT22;10050;55.492;13.506;2022-07-06T02:25:26;13.60;99.90
19781;DHT22;10050;55.492;13.506;2022-07-06T02:27:52;13.50;99.90
19781;DHT22;10050;55.492;13.506;2022-07-06T02:30:17;13.50;99.90
19781;DHT22;10050;55.492;13.506;2022-07-06T02:32:43;13.50;99.90
19781;DHT22;10050;55.492;13.506;2022-07-06T02:35:09;13.50;99.90
19781;DHT22;10050;55.492;13.506;2022-07-06T02:37:34;13.40;99.90
19781;DHT22;10050;55.492;13.506;2022-07-06T02:40:00;13.50;99.90
19781;DHT22;10050;55.492;13.506;2022-07-06T02:42:26;13.40;99.90
19781;DHT22;10050;55.492;13.506;2022-07-06T02:44:55;13.40;99.90
19781;DHT22;10050;55.492;13.506;2022-07-06T02:47:21;13.50;99.90
19781;DHT22;10050;55.492;13.506;2022-07-06T02:49:46;13.50;99.90
19781;DHT22;10050;55.492;13.506;2022-07-06T02:52:12;13.50;99.90
19781;DHT22;10050;55.492;13.506;2022-07-06T02:54:38;13.50;99.90
19781;DHT22;10050;55.492;13.506;2022-07-06T02:57:03;13.50;99.90
19781;DHT22;10050;55.492;13.506;2022-07-06T02:59:29;13.40;99.90
19781;DHT22;10050;55.492;13.506;2022-07-06T03:01:54;13.40;99.90
19781;DHT22;10050;55.492;13.506;2022-07-06T03:04:20;13.40;99.90
19781;DHT22;10050;55.492;13.506;2022-07-06T03:06:46;13.30;99.90
19781;DHT22;10050;55.492;13.506;2022-07-06T03:09:11;13.40;99.90
19781;DHT22;10050;55.492;13.506;2022-07-06T03:11:37;13.40;99.90
19781;DHT22;10050;55.492;13.506;2022-07-06T03:14:03;13.40;99.90
19781;DHT22;10050;55.492;13.506;2022-07-06T03:16:29;13.40;99.90
19781;DHT22;10050;55.492;13.506;2022-07-06T03:18:55;13.40;99.90
19781;DHT22;10050;55.492;13.506;2022-07-06T03:21:21;13.50;99.90
19781;DHT22;10050;55.492;13.506;2022-07-06T03:23:47;13.50;99.90
19781;DHT22;10050;55.492;13.506;2022-07-06T03:26:13;13.40;99.90
19781;DHT22;10050;55.492;13.506;2022-07-06T03:28:38;13.50;99.90
19781;DHT22;10050;55.492;13.506;2022-07-06T03:31:04;13.50;99.90
19781;DHT22;10050;55.492;13.506;2022-07-06T03:33:30;13.50;99.90
19781;DHT22;10050;55.492;13.506;2022-07-06T03:35:55;13.60;99.90
19781;DHT22;10050;55.492;13.506;2022-07-06T03:38:21;13.60;99.90
19781;DHT22;10050;55.492;13.506;2022-07-06T03:40:47;13.60;99.90
19781;DHT22;10050;55.492;13.506;2022-07-06T03:43:12;13.60;99.90
19781;DHT22;10050;55.492;13.506;2022-07-06T03:45:38;13.70;99.90
19781;DHT22;10050;55.492;13.506;2022-07-06T03:48:04;13.60;99.90
19781;DHT22;10050;55.492;13.506;2022-07-06T03:50:30;13.70;99.90
19781;DHT22;10050;55.492;13.506;2022-07-06T03:52:55;13.70;99.90
19781;DHT22;10050;55.492;13.506;2022-07-06T03:55:21;13.80;99.90
19781;DHT22;10050;55.492;13.506;2022-07-06T03:57:47;14.20;99.90
19781;DHT22;10050;55.492;13.506;2022-07-06T04:00:13;14.30;99.90
19781;DHT22;10050;55.492;13.506;2022-07-06T04:02:39;14.20;99.90
19781;DHT22;10050;55.492;13.506;2022-07-06T04:05:05;14.20;99.90
19781;DHT22;10050;55.492;13.506;2022-07-06T04:07:30;14.10;99.90
19781;DHT22;10050;55.492;13.506;2022-07-06T04:09:56;14.10;99.90
19781;DHT22;10050;55.492;13.506;2022-07-06T04:12:22;14.00;99.90
19781;DHT22;10050;55.492;13.506;2022-07-06T04:14:47;14.00;99.90
19781;DHT22;10050;55.492;13.506;2022-07-06T04:17:13;14.00;99.90
19781;DHT22;10050;55.492;13.506;2022-07-06T04:19:58;14.00;99.90
19781;DHT22;10050;55.492;13.506;2022-07-06T04:22:23;14.10;99.90
19781;DHT22;10050;55.492;13.506;2022-07-06T04:24:49;14.10;99.90
19781;DHT22;10050;55.492;13.506;2022-07-06T04:27:14;14.10;99.90
19781;DHT22;10050;55.492;13.506;2022-07-06T04:29:40;14.10;99.90
19781;DHT22;10050;55.492;13.506;2022-07-06T04:32:06;14.20;99.90
19781;DHT22;10050;55.492;13.506;2022-07-06T04:34:32;14.20;99.90
19781;DHT22;10050;55.492;13.506;2022-07-06T04:36:57;14.20;99.90
19781;DHT22;10050;55.492;13.506;2022-07-06T04:39:23;14.30;99.90
19781;DHT22;10050;55.492;13.506;2022-07-06T04:41:48;14.30;99.90
19781;DHT22;10050;55.492;13.506;2022-07-06T04:44:14;14.40;99.90
19781;DHT22;10050;55.492;13.506;2022-07-06T04:46:40;14.50;99.90
19781;DHT22;10050;55.492;13.506;2022-07-06T04:49:05;14.60;99.90
19781;DHT22;10050;55.492;13.506;2022-07-06T04:51:32;14.60;99.90
19781;DHT22;10050;55.492;13.506;2022-07-06T04:53:58;14.60;99.90
19781;DHT22;10050;55.492;13.506;2022-07-06T04:56:24;14.60;99.90
19781;DHT22;10050;55.492;13.506;2022-07-06T04:58:49;14.70;99.90
19781;DHT22;10050;55.492;13.506;2022-07-06T05:01:15;14.70;99.90
19781;DHT22;10050;55.492;13.506;2022-07-06T05:03:40;14.80;99.90
19781;DHT22;10050;55.492;13.506;2022-07-06T05:06:07;14.90;99.90
19781;DHT22;10050;55.492;13.506;2022-07-06T05:08:33;15.00;99.90
19781;DHT22;10050;55.492;13.506;2022-07-06T05:11:00;15.10;99.90
19781;DHT22;10050;55.492;13.506;2022-07-06T05:13:26;15.20;99.90
19781;DHT22;10050;55.492;13.506;2022-07-06T05:15:51;15.30;99.90
19781;DHT22;10050;55.492;13.506;2022-07-06T05:18:17;15.40;99.90
19781;DHT22;10050;55.492;13.506;2022-07-06T05:20:43;15.50;99.90
19781;DHT22;10050;55.492;13.506;2022-07-06T05:23:09;15.60;99.90
19781;DHT22;10050;55.492;13.506;2022-07-06T05:25:35;15.60;99.90
19781;DHT22;10050;55.492;13.506;2022-07-06T05:28:02;15.60;99.90
19781;DHT22;10050;55.492;13.506;2022-07-06T05:30:28;15.80;99.90
19781;DHT22;10050;55.492;13.506;2022-07-06T05:32:54;16.00;99.90
19781;DHT22;10050;55.492;13.506;2022-07-06T05:35:19;16.10;99.90
19781;DHT22;10050;55.492;13.506;2022-07-06T05:37:45;16.40;99.90
19781;DHT22;10050;55.492;13.506;2022-07-06T05:40:11;16.60;99.90
19781;DHT22;10050;55.492;13.506;2022-07-06T05:42:37;16.70;99.90
19781;DHT22;10050;55.492;13.506;2022-07-06T05:45:03;16.70;99.90
19781;DHT22;10050;55.492;13.506;2022-07-06T05:47:29;16.60;99.90
19781;DHT22;10050;55.492;13.506;2022-07-06T05:50:14;16.80;99.90
19781;DHT22;10050;55.492;13.506;2022-07-06T05:52:50;16.80;99.90
19781;DHT22;10050;55.492;13.506;2022-07-06T05:55:20;17.00;99.90
19781;DHT22;10050;55.492;13.506;2022-07-06T05:57:45;17.10;99.90
19781;DHT22;10050;55.492;13.506;2022-07-06T06:00:11;17.20;99.90
19781;DHT22;10050;55.492;13.506;2022-07-06T06:02:41;17.50;99.90
19781;DHT22;10050;55.492;13.506;2022-07-06T06:05:08;17.60;99.90
19781;DHT22;10050;55.492;13.506;2022-07-06T06:07:35;17.80;99.90
19781;DHT22;10050;55.492;13.506;2022-07-06T06:10:03;18.10;99.90
19781;DHT22;10050;55.492;13.506;2022-07-06T06:12:29;18.30;99.90
19781;DHT22;10050;55.492;13.506;2022-07-06T06:14:55;18.40;99.90
19781;DHT22;10050;55.492;13.506;2022-07-06T06:17:20;18.30;99.90
19781;DHT22;10050;55.492;13.506;2022-07-06T06:19:46;18.50;99.90
19781;DHT22;10050;55.492;13.506;2022-07-06T06:22:12;18.60;99.90
19781;DHT22;10050;55.492;13.506;2022-07-06T06:24:37;18.70;99.90
19781;DHT22;10050;55.492;13.506;2022-07-06T06:27:03;18.50;99.90
19781;DHT22;10050;55.492;13.506;2022-07-06T06:29:29;18.20;99.90
19781;DHT22;10050;55.492;13.506;2022-07-06T06:31:54;17.90;99.90
19781;DHT22;10050;55.492;13.506;2022-07-06T06:34:20;17.70;99.90
19781;DHT22;10050;55.492;13.506;2022-07-06T06:36:46;17.80;99.90
19781;DHT22;10050;55.492;13.506;2022-07-06T06:39:11;18.20;99.90
19781;DHT22;10050;55.492;13.506;2022-07-06T06:41:37;18.30;99.90
19781;DHT22;10050;55.492;13.506;2022-07-06T06:44:03;17.90;99.90
19781;DHT22;10050;55.492;13.506;2022-07-06T06:46:28;18.30;99.90
19781;DHT22;10050;55.492;13.506;2022-07-06T06:48:54;18.60;99.90
19781;DHT22;10050;55.492;13.506;2022-07-06T06:51:20;19.00;99.90
19781;DHT22;10050;55.492;13.506;2022-07-06T06:53:46;19.40;99.90
19781;DHT22;10050;55.492;13.506;2022-07-06T06:56:12;19.60;99.90
19781;DHT22;10050;55.492;13.506;2022-07-06T06:58:38;19.80;99.90
19781;DHT22;10050;55.492;13.506;2022-07-06T07:01:04;19.60;99.90
19781;DHT22;10050;55.492;13.506;2022-07-06T07:03:30;19.60;99.90
19781;DHT22;10050;55.492;13.506;2022-07-06T07:05:56;19.80;99.90
19781;DHT22;10050;55.492;13.506;2022-07-06T07:08:22;20.20;99.90
19781;DHT22;10050;55.492;13.506;2022-07-06T07:10:48;20.30;99.90
19781;DHT22;10050;55.492;13.506;2022-07-06T07:13:13;20.30;99.90
19781;DHT22;10050;55.492;13.506;2022-07-06T07:15:39;20.30;99.90
19781;DHT22;10050;55.492;13.506;2022-07-06T07:18:05;20.50;99.90
19781;DHT22;10050;55.492;13.506;2022-07-06T07:20:31;20.50;99.90
19781;DHT22;10050;55.492;13.506;2022-07-06T07:22:59;20.70;99.90
19781;DHT22;10050;55.492;13.506;2022-07-06T07:25:25;20.90;99.90
19781;DHT22;10050;55.492;13.506;2022-07-06T07:27:51;21.10;99.90
19781;DHT22;10050;55.492;13.506;2022-07-06T07:30:16;21.20;99.90
19781;DHT22;10050;55.492;13.506;2022-07-06T07:32:42;21.20;99.90
19781;DHT22;10050;55.492;13.506;2022-07-06T07:35:09;21.10;99.90
19781;DHT22;10050;55.492;13.506;2022-07-06T07:37:35;21.30;99.90
19781;DHT22;10050;55.492;13.506;2022-07-06T07:40:01;21.10;99.90
19781;DHT22;10050;55.492;13.506;2022-07-06T07:42:26;21.10;99.90
19781;DHT22;10050;55.492;13.506;2022-07-06T07:44:52;21.50;99.90
19781;DHT22;10050;55.492;13.506;2022-07-06T07:47:18;21.00;99.90
19781;DHT22;10050;55.492;13.506;2022-07-06T07:49:43;20.50;99.90
19781;DHT22;10050;55.492;13.506;2022-07-06T07:52:10;20.40;99.90
19781;DHT22;10050;55.492;13.506;2022-07-06T07:54:36;20.80;99.90
19781;DHT22;10050;55.492;13.506;2022-07-06T07:57:02;21.20;99.90
19781;DHT22;10050;55.492;13.506;2022-07-06T07:59:28;21.50;99.90
19781;DHT22;10050;55.492;13.506;2022-07-06T08:01:53;21.90;99.90
19781;DHT22;10050;55.492;13.506;2022-07-06T08:04:19;22.20;99.90
19781;DHT22;10050;55.492;13.506;2022-07-06T08:06:45;22.70;99.90
19781;DHT22;10050;55.492;13.506;2022-07-06T08:09:10;22.90;99.90
19781;DHT22;10050;55.492;13.506;2022-07-06T08:11:36;22.60;99.90
19781;DHT22;10050;55.492;13.506;2022-07-06T08:14:02;22.60;99.90
19781;DHT22;10050;55.492;13.506;2022-07-06T08:16:28;23.00;99.90
19781;DHT22;10050;55.492;13.506;2022-07-06T08:18:54;23.00;99.90
19781;DHT22;10050;55.492;13.506;2022-07-06T08:21:19;22.10;99.90
19781;DHT22;10050;55.492;13.506;2022-07-06T08:23:45;21.40;99.90
19781;DHT22;10050;55.492;13.506;2022-07-06T08:26:11;21.40;99.90
19781;DHT22;10050;55.492;13.506;2022-07-06T08:28:36;21.90;99.90
19781;DHT22;10050;55.492;13.506;2022-07-06T08:31:02;22.10;99.90
19781;DHT22;10050;55.492;13.506;2022-07-06T08:33:28;22.30;99.90
19781;DHT22;10050;55.492;13.506;2022-07-06T08:35:54;22.50;99.90
19781;DHT22;10050;55.492;13.506;2022-07-06T08:38:19;22.10;99.90
19781;DHT22;10050;55.492;13.506;2022-07-06T08:40:47;21.40;99.90
19781;DHT22;10050;55.492;13.506;2022-07-06T08:43:14;21.00;99.90
19781;DHT22;10050;55.492;13.506;2022-07-06T08:45:41;21.20;99.90
19781;DHT22;10050;55.492;13.506;2022-07-06T08:48:10;21.50;99.90
19781;DHT22;10050;55.492;13.506;2022-07-06T08:50:36;22.10;99.90
19781;DHT22;10050;55.492;13.506;2022-07-06T08:53:01;22.80;99.90
19781;DHT22;10050;55.492;13.506;2022-07-06T08:55:28;22.70;99.90
19781;DHT22;10050;55.492;13.506;2022-07-06T08:57:57;22.20;99.90
19781;DHT22;10050;55.492;13.506;2022-07-06T09:00:24;21.30;99.90
19781;DHT22;10050;55.492;13.506;2022-07-06T09:02:53;20.80;99.90
19781;DHT22;10050;55.492;13.506;2022-07-06T09:05:22;21.20;99.90
19781;DHT22;10050;55.492;13.506;2022-07-06T09:07:52;21.70;99.90
19781;DHT22;10050;55.492;13.506;2022-07-06T09:10:20;22.10;99.90
19781;DHT22;10050;55.492;13.506;2022-07-06T09:12:47;22.40;99.90
19781;DHT22;10050;55.492;13.506;2022-07-06T09:15:13;22.90;99.90
19781;DHT22;10050;55.492;13.506;2022-07-06T09:17:40;22.80;99.90
19781;DHT22;10050;55.492;13.506;2022-07-06T09:20:13;22.20;99.90
19781;DHT22;10050;55.492;13.506;2022-07-06T09:22:39;22.00;99.90
19781;DHT22;10050;55.492;13.506;2022-07-06T09:25:10;22.90;99.90
19781;DHT22;10050;55.492;13.506;2022-07-06T09:27:44;23.50;99.90
19781;DHT22;10050;55.492;13.506;2022-07-06T09:30:16;23.90;99.90
19781;DHT22;10050;55.492;13.506;2022-07-06T09:32:43;23.50;99.90
19781;DHT22;10050;55.492;13.506;2022-07-06T09:37:45;21.80;99.90
19781;DHT22;10050;55.492;13.506;2022-07-06T09:40:17;21.50;99.90
19781;DHT22;10050;55.492;13.506;2022-07-06T09:42:43;21.50;99.90
19781;DHT22;10050;55.492;13.506;2022-07-06T09:45:09;21.80;99.90
19781;DHT22;10050;55.492;13.506;2022-07-06T09:47:35;21.80;99.90
19781;DHT22;10050;55.492;13.506;2022-07-06T09:50:05;21.40;99.90
19781;DHT22;10050;55.492;13.506;2022-07-06T09:52:34;21.10;99.90
19781;DHT22;10050;55.492;13.506;2022-07-06T09:55:00;20.90;99.90
19781;DHT22;10050;55.492;13.506;2022-07-06T09:57:25;20.50;99.90
19781;DHT22;10050;55.492;13.506;2022-07-06T09:59:51;20.20;99.90
19781;DHT22;10050;55.492;13.506;2022-07-06T10:02:19;19.90;99.90
19781;DHT22;10050;55.492;13.506;2022-07-06T10:04:45;19.70;99.90
19781;DHT22;10050;55.492;13.506;2022-07-06T10:07:12;19.30;99.90
19781;DHT22;10050;55.492;13.506;2022-07-06T10:09:39;19.00;99.90
19781;DHT22;10050;55.492;13.506;2022-07-06T10:12:09;19.00;99.90
19781;DHT22;10050;55.492;13.506;2022-07-06T10:14:38;19.00;99.90
19781;DHT22;10050;55.492;13.506;2022-07-06T10:17:06;19.30;99.90
19781;DHT22;10050;55.492;13.506;2022-07-06T10:19:32;19.30;99.90
19781;DHT22;10050;55.492;13.506;2022-07-06T10:22:00;19.40;99.90
19781;DHT22;10050;55.492;13.506;2022-07-06T10:24:27;19.30;99.90
19781;DHT22;10050;55.492;13.506;2022-07-06T10:26:54;19.20;99.90
19781;DHT22;10050;55.492;13.506;2022-07-06T10:29:20;20.10;99.90
19781;DHT22;10050;55.492;13.506;2022-07-06T10:31:47;20.40;99.90
19781;DHT22;10050;55.492;13.506;2022-07-06T10:34:15;20.20;99.90
19781;DHT22;10050;55.492;13.506;2022-07-06T10:36:43;19.90;99.90
19781;DHT22;10050;55.492;13.506;2022-07-06T10:39:10;19.60;99.90
19781;DHT22;10050;55.492;13.506;2022-07-06T10:41:55;19.30;99.90
19781;DHT22;10050;55.492;13.506;2022-07-06T10:44:25;19.10;99.90
19781;DHT22;10050;55.492;13.506;2022-07-06T10:46:58;19.10;99.90
19781;DHT22;10050;55.492;13.506;2022-07-06T10:49:26;19.10;99.90
19781;DHT22;10050;55.492;13.506;2022-07-06T10:51:52;19.00;99.90
19781;DHT22;10050;55.492;13.506;2022-07-06T10:54:19;19.00;99.90
19781;DHT22;10050;55.492;13.506;2022-07-06T10:56:49;19.10;99.90
19781;DHT22;10050;55.492;13.506;2022-07-06T10:59:18;19.20;99.90
19781;DHT22;10050;55.492;13.506;2022-07-06T11:02:12;19.30;99.90
19781;DHT22;10050;55.492;13.506;2022-07-06T11:04:39;19.30;99.90
19781;DHT22;10050;55.492;13.506;2022-07-06T11:07:08;19.40;99.90
19781;DHT22;10050;55.492;13.506;2022-07-06T11:09:36;20.40;99.90
19781;DHT22;10050;55.492;13.506;2022-07-06T11:12:15;21.00;99.90
19781;DHT22;10050;55.492;13.506;2022-07-06T11:14:42;21.40;99.90
19781;DHT22;10050;55.492;13.506;2022-07-06T11:17:10;21.30;99.90
19781;DHT22;10050;55.492;13.506;2022-07-06T11:19:36;21.00;99.90
19781;DHT22;10050;55.492;13.506;2022-07-06T11:22:07;21.10;99.90
19781;DHT22;10050;55.492;13.506;2022-07-06T11:24:38;21.30;99.90
19781;DHT22;10050;55.492;13.506;2022-07-06T11:27:04;21.20;99.90
19781;DHT22;10050;55.492;13.506;2022-07-06T11:29:32;21.40;99.90
19781;DHT22;10050;55.492;13.506;2022-07-06T11:32:00;21.70;99.90
19781;DHT22;10050;55.492;13.506;2022-07-06T11:34:34;22.00;99.90
19781;DHT22;10050;55.492;13.506;2022-07-06T11:37:02;22.00;99.90
19781;DHT22;10050;55.492;13.506;2022-07-06T11:39:38;22.00;99.90
19781;DHT22;10050;55.492;13.506;2022-07-06T11:42:11;22.00;99.90
19781;DHT22;10050;55.492;13.506;2022-07-06T11:44:38;22.10;99.90
19781;DHT22;10050;55.492;13.506;2022-07-06T11:47:05;22.10;99.90
19781;DHT22;10050;55.492;13.506;2022-07-06T11:49:32;22.30;99.90
19781;DHT22;10050;55.492;13.506;2022-07-06T11:51:58;22.40;99.90
19781;DHT22;10050;55.492;13.506;2022-07-06T11:54:24;22.20;99.90
19781;DHT22;10050;55.492;13.506;2022-07-06T11:56:51;22.40;99.90
19781;DHT22;10050;55.492;13.506;2022-07-06T11:59:40;22.10;99.90
19781;DHT22;10050;55.492;13.506;2022-07-06T12:02:10;21.70;99.90
19781;DHT22;10050;55.492;13.506;2022-07-06T12:04:38;21.60;99.90
19781;DHT22;10050;55.492;13.506;2022-07-06T12:07:09;21.50;99.90
19781;DHT22;10050;55.492;13.506;2022-07-06T12:09:38;21.40;99.90
19781;DHT22;10050;55.492;13.506;2022-07-06T12:12:05;21.40;99.90
19781;DHT22;10050;55.492;13.506;2022-07-06T12:14:32;21.20;99.90
19781;DHT22;10050;55.492;13.506;2022-07-06T12:17:12;21.10;99.90
19781;DHT22;10050;55.492;13.506;2022-07-06T12:19:39;21.20;99.90
19781;DHT22;10050;55.492;13.506;2022-07-06T12:22:06;21.20;99.90
19781;DHT22;10050;55.492;13.506;2022-07-06T12:24:33;21.10;99.90
19781;DHT22;10050;55.492;13.506;2022-07-06T12:27:17;21.10;99.90
19781;DHT22;10050;55.492;13.506;2022-07-06T12:29:43;21.10;99.90
19781;DHT22;10050;55.492;13.506;2022-07-06T12:34:41;21.10;99.90
19781;DHT22;10050;55.492;13.506;2022-07-06T12:37:08;21.20;99.90
19781;DHT22;10050;55.492;13.506;2022-07-06T12:39:45;21.00;99.90
19781;DHT22;10050;55.492;13.506;2022-07-06T12:42:14;20.90;99.90
19781;DHT22;10050;55.492;13.506;2022-07-06T12:44:58;20.70;99.90
19781;DHT22;10050;55.492;13.506;2022-07-06T12:47:25;20.50;99.90
19781;DHT22;10050;55.492;13.506;2022-07-06T12:50:10;20.50;99.90
19781;DHT22;10050;55.492;13.506;2022-07-06T12:52:37;20.60;99.90
19781;DHT22;10050;55.492;13.506;2022-07-06T12:55:05;20.60;99.90
19781;DHT22;10050;55.492;13.506;2022-07-06T12:57:46;20.80;99.90
19781;DHT22;10050;55.492;13.506;2022-07-06T13:00:13;21.00;99.90
19781;DHT22;10050;55.492;13.506;2022-07-06T13:02:39;20.90;99.90
19781;DHT22;10050;55.492;13.506;2022-07-06T13:05:10;20.80;99.90
19781;DHT22;10050;55.492;13.506;2022-07-06T13:07:37;20.70;99.90
19781;DHT22;10050;55.492;13.506;2022-07-06T13:10:13;20.60;99.90
19781;DHT22;10050;55.492;13.506;2022-07-06T13:12:40;20.40;99.90
19781;DHT22;10050;55.492;13.506;2022-07-06T13:15:07;20.30;99.90
19781;DHT22;10050;55.492;13.506;2022-07-06T13:17:33;20.40;99.90
19781;DHT22;10050;55.492;13.506;2022-07-06T13:19:59;20.60;99.90
19781;DHT22;10050;55.492;13.506;2022-07-06T13:22:25;20.80;99.90
19781;DHT22;10050;55.492;13.506;2022-07-06T13:24:51;20.70;99.90
19781;DHT22;10050;55.492;13.506;2022-07-06T13:27:16;20.50;99.90
19781;DHT22;10050;55.492;13.506;2022-07-06T13:29:42;20.60;99.90
19781;DHT22;10050;55.492;13.506;2022-07-06T13:32:08;20.60;99.90
19781;DHT22;10050;55.492;13.506;2022-07-06T13:34:34;20.80;99.90
19781;DHT22;10050;55.492;13.506;2022-07-06T13:37:03;21.00;99.90
19781;DHT22;10050;55.492;13.506;2022-07-06T13:39:29;21.60;99.90
19781;DHT22;10050;55.492;13.506;2022-07-06T13:41:55;22.10;99.90
19781;DHT22;10050;55.492;13.506;2022-07-06T13:44:21;22.30;99.90
19781;DHT22;10050;55.492;13.506;2022-07-06T13:46:47;22.40;99.90
19781;DHT22;10050;55.492;13.506;2022-07-06T13:49:14;22.00;99.90
19781;DHT22;10050;55.492;13.506;2022-07-06T13:51:39;21.40;99.90
19781;DHT22;10050;55.492;13.506;2022-07-06T13:54:05;21.00;99.90
19781;DHT22;10050;55.492;13.506;2022-07-06T13:56:31;20.90;99.90
19781;DHT22;10050;55.492;13.506;2022-07-06T13:58:57;21.00;99.90
19781;DHT22;10050;55.492;13.506;2022-07-06T14:01:22;21.00;99.90
19781;DHT22;10050;55.492;13.506;2022-07-06T14:03:48;20.90;99.90
19781;DHT22;10050;55.492;13.506;2022-07-06T14:06:14;20.60;99.90
19781;DHT22;10050;55.492;13.506;2022-07-06T14:08:41;20.50;99.90
19781;DHT22;10050;55.492;13.506;2022-07-06T14:11:08;20.40;99.90
19781;DHT22;10050;55.492;13.506;2022-07-06T14:13:35;20.10;99.90
19781;DHT22;10050;55.492;13.506;2022-07-06T14:16:01;20.00;99.90
19781;DHT22;10050;55.492;13.506;2022-07-06T14:18:27;19.80;99.90
19781;DHT22;10050;55.492;13.506;2022-07-06T14:20:53;19.80;99.90
19781;DHT22;10050;55.492;13.506;2022-07-06T14:23:20;19.70;99.90
19781;DHT22;10050;55.492;13.506;2022-07-06T14:25:46;19.70;99.90
19781;DHT22;10050;55.492;13.506;2022-07-06T14:28:13;19.80;99.90
19781;DHT22;10050;55.492;13.506;2022-07-06T14:30:39;19.70;99.90
19781;DHT22;10050;55.492;13.506;2022-07-06T14:33:07;19.80;99.90
19781;DHT22;10050;55.492;13.506;2022-07-06T14:35:44;19.80;99.90
19781;DHT22;10050;55.492;13.506;2022-07-06T14:38:11;19.90;99.90
19781;DHT22;10050;55.492;13.506;2022-07-06T14:40:37;19.90;99.90
19781;DHT22;10050;55.492;13.506;2022-07-06T14:43:03;20.10;99.90
19781;DHT22;10050;55.492;13.506;2022-07-06T14:45:29;20.30;99.90
19781;DHT22;10050;55.492;13.506;2022-07-06T14:47:55;20.50;99.90
19781;DHT22;10050;55.492;13.506;2022-07-06T14:50:21;20.30;99.90
19781;DHT22;10050;55.492;13.506;2022-07-06T14:52:51;20.10;99.90
19781;DHT22;10050;55.492;13.506;2022-07-06T14:55:17;20.10;99.90
19781;DHT22;10050;55.492;13.506;2022-07-06T14:57:42;20.00;99.90
19781;DHT22;10050;55.492;13.506;2022-07-06T15:00:09;20.00;99.90
19781;DHT22;10050;55.492;13.506;2022-07-06T15:02:35;19.90;99.90
19781;DHT22;10050;55.492;13.506;2022-07-06T15:05:01;19.80;99.90
19781;DHT22;10050;55.492;13.506;2022-07-06T15:07:26;19.70;99.90
19781;DHT22;10050;55.492;13.506;2022-07-06T15:09:52;19.70;99.90
19781;DHT22;10050;55.492;13.506;2022-07-06T15:12:18;19.70;99.90
19781;DHT22;10050;55.492;13.506;2022-07-06T15:14:43;19.80;99.90
19781;DHT22;10050;55.492;13.506;2022-07-06T15:17:09;19.80;99.90
19781;DHT22;10050;55.492;13.506;2022-07-06T15:19:35;19.80;99.90